Waldorf, Minnesota
Current Conditions -  °F | °C
As of 6:14 AM on Sunday 25 Jan 2015 (Local Time) from KACQ Reporting Station
Overcast Overcast  
Wind Chill: 21°   Ceiling: 1500
Heat Index: 32°   Visibility: 10mi
Dew Point: 28°   Wind: 16mph
Humidity: 87%   Direction: 30°NNE
Pressure: 29.83"   Gusts: 22mph
Location:  43.93°N, 93.7°W
Report Text: KACQ 251214Z AUTO 03014G19KT 10SM BKN015 OVC020 00/M02 A2983 RMK AO2
Loading
Personal Weather Stations






























Interactive Weather Map New forecast layout! Learn more

10-Day Weather Forecast

Advertisements
Track Severe Weather on mobile